sensor_id;sensor_type;location;lat;lon;timestamp;temperature;humidity
34099;DHT22;20374;49.474;10.944;2023-07-29T00:00:29;17.20;99.90
34099;DHT22;20374;49.474;10.944;2023-07-29T00:02:55;17.20;99.90
34099;DHT22;20374;49.474;10.944;2023-07-29T00:05:21;17.20;99.90
34099;DHT22;20374;49.474;10.944;2023-07-29T00:07:47;17.20;99.90
34099;DHT22;20374;49.474;10.944;2023-07-29T00:10:13;17.20;99.90
34099;DHT22;20374;49.474;10.944;2023-07-29T00:12:38;17.20;99.90
34099;DHT22;20374;49.474;10.944;2023-07-29T00:15:05;17.10;99.90
34099;DHT22;20374;49.474;10.944;2023-07-29T00:17:31;17.10;99.90
34099;DHT22;20374;49.474;10.944;2023-07-29T00:19:57;17.10;99.90
34099;DHT22;20374;49.474;10.944;2023-07-29T00:22:22;17.10;99.90
34099;DHT22;20374;49.474;10.944;2023-07-29T00:24:52;17.10;99.90
34099;DHT22;20374;49.474;10.944;2023-07-29T00:27:23;17.10;99.90
34099;DHT22;20374;49.474;10.944;2023-07-29T00:29:49;17.10;99.90
34099;DHT22;20374;49.474;10.944;2023-07-29T00:32:15;17.10;99.90
34099;DHT22;20374;49.474;10.944;2023-07-29T00:34:41;17.10;99.90
34099;DHT22;20374;49.474;10.944;2023-07-29T00:37:07;17.10;99.90
34099;DHT22;20374;49.474;10.944;2023-07-29T00:39:33;17.00;99.90
34099;DHT22;20374;49.474;10.944;2023-07-29T00:41:59;17.00;99.90
34099;DHT22;20374;49.474;10.944;2023-07-29T00:44:25;17.00;99.90
34099;DHT22;20374;49.474;10.944;2023-07-29T00:46:52;17.00;99.90
34099;DHT22;20374;49.474;10.944;2023-07-29T00:49:20;17.00;99.90
34099;DHT22;20374;49.474;10.944;2023-07-29T00:51:47;17.00;99.90
34099;DHT22;20374;49.474;10.944;2023-07-29T00:54:13;17.00;99.90
34099;DHT22;20374;49.474;10.944;2023-07-29T00:56:40;16.90;99.90
34099;DHT22;20374;49.474;10.944;2023-07-29T00:59:06;16.90;99.90
34099;DHT22;20374;49.474;10.944;2023-07-29T01:01:32;16.90;99.90
34099;DHT22;20374;49.474;10.944;2023-07-29T01:03:58;16.80;99.90
34099;DHT22;20374;49.474;10.944;2023-07-29T01:06:50;16.80;99.90
34099;DHT22;20374;49.474;10.944;2023-07-29T01:12:14;16.80;99.90
34099;DHT22;20374;49.474;10.944;2023-07-29T01:17:36;16.80;99.90
34099;DHT22;20374;49.474;10.944;2023-07-29T01:20:11;16.80;99.90
34099;DHT22;20374;49.474;10.944;2023-07-29T01:22:39;16.80;99.90
34099;DHT22;20374;49.474;10.944;2023-07-29T01:25:06;16.80;99.90
34099;DHT22;20374;49.474;10.944;2023-07-29T01:27:32;16.80;99.90
34099;DHT22;20374;49.474;10.944;2023-07-29T01:29:58;16.70;99.90
34099;DHT22;20374;49.474;10.944;2023-07-29T01:35:33;16.70;99.90
34099;DHT22;20374;49.474;10.944;2023-07-29T01:38:23;16.70;99.90
34099;DHT22;20374;49.474;10.944;2023-07-29T01:40:51;16.60;99.90
34099;DHT22;20374;49.474;10.944;2023-07-29T01:43:18;16.60;99.90
34099;DHT22;20374;49.474;10.944;2023-07-29T01:45:49;16.60;99.90
34099;DHT22;20374;49.474;10.944;2023-07-29T01:48:16;16.60;99.90
34099;DHT22;20374;49.474;10.944;2023-07-29T01:50:43;16.50;99.90
34099;DHT22;20374;49.474;10.944;2023-07-29T01:53:09;16.50;99.90
34099;DHT22;20374;49.474;10.944;2023-07-29T01:55:34;16.50;99.90
34099;DHT22;20374;49.474;10.944;2023-07-29T01:58:00;16.50;99.90
34099;DHT22;20374;49.474;10.944;2023-07-29T02:00:27;16.40;99.90
34099;DHT22;20374;49.474;10.944;2023-07-29T02:02:53;16.40;99.90
34099;DHT22;20374;49.474;10.944;2023-07-29T02:05:19;16.40;99.90
34099;DHT22;20374;49.474;10.944;2023-07-29T02:07:45;16.30;99.90
34099;DHT22;20374;49.474;10.944;2023-07-29T02:10:11;16.30;99.90
34099;DHT22;20374;49.474;10.944;2023-07-29T02:12:37;16.30;99.90
34099;DHT22;20374;49.474;10.944;2023-07-29T02:15:04;16.20;99.90
34099;DHT22;20374;49.474;10.944;2023-07-29T02:17:30;16.20;99.90
34099;DHT22;20374;49.474;10.944;2023-07-29T02:19:56;16.20;99.90
34099;DHT22;20374;49.474;10.944;2023-07-29T02:22:22;16.10;99.90
34099;DHT22;20374;49.474;10.944;2023-07-29T02:24:48;16.10;99.90
34099;DHT22;20374;49.474;10.944;2023-07-29T02:27:14;16.00;99.90
34099;DHT22;20374;49.474;10.944;2023-07-29T02:29:41;16.00;99.90
34099;DHT22;20374;49.474;10.944;2023-07-29T02:32:07;16.00;99.90
34099;DHT22;20374;49.474;10.944;2023-07-29T02:34:33;16.00;99.90
34099;DHT22;20374;49.474;10.944;2023-07-29T02:37:00;16.00;99.90
34099;DHT22;20374;49.474;10.944;2023-07-29T02:39:26;15.90;99.90
34099;DHT22;20374;49.474;10.944;2023-07-29T02:41:52;15.90;99.90
34099;DHT22;20374;49.474;10.944;2023-07-29T02:44:18;15.90;99.90
34099;DHT22;20374;49.474;10.944;2023-07-29T02:46:45;15.90;99.90
34099;DHT22;20374;49.474;10.944;2023-07-29T02:49:11;15.90;99.90
34099;DHT22;20374;49.474;10.944;2023-07-29T02:51:37;16.00;99.90
34099;DHT22;20374;49.474;10.944;2023-07-29T02:54:03;16.00;99.90
34099;DHT22;20374;49.474;10.944;2023-07-29T02:56:29;16.00;99.90
34099;DHT22;20374;49.474;10.944;2023-07-29T02:58:56;16.00;99.90
34099;DHT22;20374;49.474;10.944;2023-07-29T03:01:23;16.10;99.90
34099;DHT22;20374;49.474;10.944;2023-07-29T03:03:50;16.00;99.90
34099;DHT22;20374;49.474;10.944;2023-07-29T03:06:16;16.00;99.90
34099;DHT22;20374;49.474;10.944;2023-07-29T03:08:42;15.90;99.90
34099;DHT22;20374;49.474;10.944;2023-07-29T03:11:10;15.80;99.90
34099;DHT22;20374;49.474;10.944;2023-07-29T03:13:37;15.70;99.90
34099;DHT22;20374;49.474;10.944;2023-07-29T03:16:10;15.70;99.90
34099;DHT22;20374;49.474;10.944;2023-07-29T03:18:38;15.70;99.90
34099;DHT22;20374;49.474;10.944;2023-07-29T03:21:04;15.70;99.90
34099;DHT22;20374;49.474;10.944;2023-07-29T03:23:32;15.70;99.90
34099;DHT22;20374;49.474;10.944;2023-07-29T03:25:59;15.70;99.90
34099;DHT22;20374;49.474;10.944;2023-07-29T03:28:27;15.70;99.90
34099;DHT22;20374;49.474;10.944;2023-07-29T03:30:54;15.70;99.90
34099;DHT22;20374;49.474;10.944;2023-07-29T03:33:20;15.70;99.90
34099;DHT22;20374;49.474;10.944;2023-07-29T03:35:46;15.80;99.90
34099;DHT22;20374;49.474;10.944;2023-07-29T03:38:13;15.80;99.90
34099;DHT22;20374;49.474;10.944;2023-07-29T03:40:40;15.80;99.90
34099;DHT22;20374;49.474;10.944;2023-07-29T03:43:06;15.80;99.90
34099;DHT22;20374;49.474;10.944;2023-07-29T03:45:33;15.80;99.90
34099;DHT22;20374;49.474;10.944;2023-07-29T03:47:59;15.80;99.90
34099;DHT22;20374;49.474;10.944;2023-07-29T03:50:26;15.80;99.90
34099;DHT22;20374;49.474;10.944;2023-07-29T03:52:52;15.90;99.90
34099;DHT22;20374;49.474;10.944;2023-07-29T03:55:18;15.90;99.90
34099;DHT22;20374;49.474;10.944;2023-07-29T03:57:44;15.90;99.90
34099;DHT22;20374;49.474;10.944;2023-07-29T04:00:10;15.90;99.90
34099;DHT22;20374;49.474;10.944;2023-07-29T04:02:42;16.00;99.90
34099;DHT22;20374;49.474;10.944;2023-07-29T04:05:09;16.00;99.90
34099;DHT22;20374;49.474;10.944;2023-07-29T04:07:35;16.10;99.90
34099;DHT22;20374;49.474;10.944;2023-07-29T04:10:02;16.10;99.90
34099;DHT22;20374;49.474;10.944;2023-07-29T04:12:28;16.10;99.90
34099;DHT22;20374;49.474;10.944;2023-07-29T04:14:54;16.20;99.90
34099;DHT22;20374;49.474;10.944;2023-07-29T04:17:20;16.30;99.90
34099;DHT22;20374;49.474;10.944;2023-07-29T04:19:47;16.30;99.90
34099;DHT22;20374;49.474;10.944;2023-07-29T04:22:13;16.30;99.90
34099;DHT22;20374;49.474;10.944;2023-07-29T04:24:39;16.40;99.90
34099;DHT22;20374;49.474;10.944;2023-07-29T04:27:05;16.40;99.90
34099;DHT22;20374;49.474;10.944;2023-07-29T04:29:31;16.40;99.90
34099;DHT22;20374;49.474;10.944;2023-07-29T04:31:57;16.50;99.90
34099;DHT22;20374;49.474;10.944;2023-07-29T04:34:24;16.60;99.90
34099;DHT22;20374;49.474;10.944;2023-07-29T04:36:50;16.60;99.90
34099;DHT22;20374;49.474;10.944;2023-07-29T04:39:16;16.80;99.90
34099;DHT22;20374;49.474;10.944;2023-07-29T04:41:42;17.10;99.90
34099;DHT22;20374;49.474;10.944;2023-07-29T04:44:08;17.20;99.90
34099;DHT22;20374;49.474;10.944;2023-07-29T04:46:35;17.40;99.90
34099;DHT22;20374;49.474;10.944;2023-07-29T04:49:00;17.50;99.90
34099;DHT22;20374;49.474;10.944;2023-07-29T04:51:26;18.10;99.90
34099;DHT22;20374;49.474;10.944;2023-07-29T04:53:52;18.90;99.90
34099;DHT22;20374;49.474;10.944;2023-07-29T04:56:18;19.70;99.90
34099;DHT22;20374;49.474;10.944;2023-07-29T04:58:45;20.50;99.90
34099;DHT22;20374;49.474;10.944;2023-07-29T05:01:11;21.00;99.90
34099;DHT22;20374;49.474;10.944;2023-07-29T05:03:37;21.10;99.90
34099;DHT22;20374;49.474;10.944;2023-07-29T05:06:05;20.70;99.90
34099;DHT22;20374;49.474;10.944;2023-07-29T05:08:31;20.30;99.90
34099;DHT22;20374;49.474;10.944;2023-07-29T05:10:57;19.70;99.90
34099;DHT22;20374;49.474;10.944;2023-07-29T05:13:23;19.30;99.90
34099;DHT22;20374;49.474;10.944;2023-07-29T05:15:49;18.90;99.90
34099;DHT22;20374;49.474;10.944;2023-07-29T05:18:16;18.70;99.90
34099;DHT22;20374;49.474;10.944;2023-07-29T05:20:42;18.50;99.90
34099;DHT22;20374;49.474;10.944;2023-07-29T05:23:09;18.40;99.90
34099;DHT22;20374;49.474;10.944;2023-07-29T05:25:35;18.20;99.90
34099;DHT22;20374;49.474;10.944;2023-07-29T05:28:01;18.10;99.90
34099;DHT22;20374;49.474;10.944;2023-07-29T05:30:28;18.10;99.90
34099;DHT22;20374;49.474;10.944;2023-07-29T05:33:00;18.00;99.90
34099;DHT22;20374;49.474;10.944;2023-07-29T05:35:26;17.90;99.90
34099;DHT22;20374;49.474;10.944;2023-07-29T05:37:52;17.80;99.90
34099;DHT22;20374;49.474;10.944;2023-07-29T05:40:18;17.80;99.90
34099;DHT22;20374;49.474;10.944;2023-07-29T05:42:44;17.80;99.90
34099;DHT22;20374;49.474;10.944;2023-07-29T05:45:11;17.80;99.90
34099;DHT22;20374;49.474;10.944;2023-07-29T05:47:37;17.80;99.90
34099;DHT22;20374;49.474;10.944;2023-07-29T05:50:04;17.90;99.90
34099;DHT22;20374;49.474;10.944;2023-07-29T05:52:31;17.90;99.90
34099;DHT22;20374;49.474;10.944;2023-07-29T05:54:57;17.90;99.90
34099;DHT22;20374;49.474;10.944;2023-07-29T05:57:23;17.90;99.90
34099;DHT22;20374;49.474;10.944;2023-07-29T05:59:49;17.90;99.90
34099;DHT22;20374;49.474;10.944;2023-07-29T06:02:15;17.90;99.90
34099;DHT22;20374;49.474;10.944;2023-07-29T06:04:41;17.90;99.90
34099;DHT22;20374;49.474;10.944;2023-07-29T06:07:07;17.90;99.90
34099;DHT22;20374;49.474;10.944;2023-07-29T06:09:35;17.80;99.90
34099;DHT22;20374;49.474;10.944;2023-07-29T06:12:02;17.90;99.90
34099;DHT22;20374;49.474;10.944;2023-07-29T06:14:28;17.80;99.90
34099;DHT22;20374;49.474;10.944;2023-07-29T06:16:54;17.80;99.90
34099;DHT22;20374;49.474;10.944;2023-07-29T06:19:20;17.80;99.90
34099;DHT22;20374;49.474;10.944;2023-07-29T06:21:46;17.80;99.90
34099;DHT22;20374;49.474;10.944;2023-07-29T06:24:12;17.80;99.90
34099;DHT22;20374;49.474;10.944;2023-07-29T06:26:38;17.80;99.90
34099;DHT22;20374;49.474;10.944;2023-07-29T06:29:04;17.80;99.90
34099;DHT22;20374;49.474;10.944;2023-07-29T06:31:30;17.80;99.90
34099;DHT22;20374;49.474;10.944;2023-07-29T06:33:58;17.80;99.90
34099;DHT22;20374;49.474;10.944;2023-07-29T06:36:24;17.80;99.90
34099;DHT22;20374;49.474;10.944;2023-07-29T06:38:50;17.80;99.90
34099;DHT22;20374;49.474;10.944;2023-07-29T06:41:16;17.80;99.90
34099;DHT22;20374;49.474;10.944;2023-07-29T06:43:42;17.70;99.90
34099;DHT22;20374;49.474;10.944;2023-07-29T06:46:08;17.70;99.90
34099;DHT22;20374;49.474;10.944;2023-07-29T06:48:34;17.60;99.90
34099;DHT22;20374;49.474;10.944;2023-07-29T06:51:00;17.50;99.90
34099;DHT22;20374;49.474;10.944;2023-07-29T06:53:27;17.50;99.90
34099;DHT22;20374;49.474;10.944;2023-07-29T06:55:53;17.40;99.90
34099;DHT22;20374;49.474;10.944;2023-07-29T06:58:19;17.40;99.90
34099;DHT22;20374;49.474;10.944;2023-07-29T07:00:45;17.30;99.90
34099;DHT22;20374;49.474;10.944;2023-07-29T07:03:11;17.30;99.90
34099;DHT22;20374;49.474;10.944;2023-07-29T07:05:37;17.30;99.90
34099;DHT22;20374;49.474;10.944;2023-07-29T07:08:03;17.30;99.90
34099;DHT22;20374;49.474;10.944;2023-07-29T07:10:29;17.30;99.90
34099;DHT22;20374;49.474;10.944;2023-07-29T07:12:55;17.30;99.90
34099;DHT22;20374;49.474;10.944;2023-07-29T07:15:21;17.30;99.90
34099;DHT22;20374;49.474;10.944;2023-07-29T07:17:47;17.40;99.90
34099;DHT22;20374;49.474;10.944;2023-07-29T07:20:12;17.40;99.90
34099;DHT22;20374;49.474;10.944;2023-07-29T07:22:38;17.40;99.90
34099;DHT22;20374;49.474;10.944;2023-07-29T07:25:05;17.30;99.90
34099;DHT22;20374;49.474;10.944;2023-07-29T07:27:31;17.40;99.90
34099;DHT22;20374;49.474;10.944;2023-07-29T07:29:57;17.40;99.90
34099;DHT22;20374;49.474;10.944;2023-07-29T07:32:22;17.50;99.90
34099;DHT22;20374;49.474;10.944;2023-07-29T07:34:48;17.50;99.90
34099;DHT22;20374;49.474;10.944;2023-07-29T07:37:14;17.60;99.90
34099;DHT22;20374;49.474;10.944;2023-07-29T07:39:40;17.70;99.90
34099;DHT22;20374;49.474;10.944;2023-07-29T07:42:06;17.60;99.90
34099;DHT22;20374;49.474;10.944;2023-07-29T07:44:32;17.70;99.90
34099;DHT22;20374;49.474;10.944;2023-07-29T07:46:58;17.70;99.90
34099;DHT22;20374;49.474;10.944;2023-07-29T07:49:24;17.70;99.90
34099;DHT22;20374;49.474;10.944;2023-07-29T07:51:50;17.70;99.90
34099;DHT22;20374;49.474;10.944;2023-07-29T07:54:16;17.70;99.90
34099;DHT22;20374;49.474;10.944;2023-07-29T07:56:43;17.70;99.90
34099;DHT22;20374;49.474;10.944;2023-07-29T07:59:09;17.70;99.90
34099;DHT22;20374;49.474;10.944;2023-07-29T08:01:35;17.70;99.90
34099;DHT22;20374;49.474;10.944;2023-07-29T08:04:02;17.70;99.90
34099;DHT22;20374;49.474;10.944;2023-07-29T08:06:29;17.60;99.90
34099;DHT22;20374;49.474;10.944;2023-07-29T08:08:56;17.70;99.90
34099;DHT22;20374;49.474;10.944;2023-07-29T08:11:22;17.60;99.90
34099;DHT22;20374;49.474;10.944;2023-07-29T08:13:48;17.60;99.90
34099;DHT22;20374;49.474;10.944;2023-07-29T08:16:14;17.50;99.90
34099;DHT22;20374;49.474;10.944;2023-07-29T08:18:40;17.60;99.90
34099;DHT22;20374;49.474;10.944;2023-07-29T08:21:06;17.60;99.90
34099;DHT22;20374;49.474;10.944;2023-07-29T08:23:33;17.60;99.90
34099;DHT22;20374;49.474;10.944;2023-07-29T08:26:01;17.60;99.90
34099;DHT22;20374;49.474;10.944;2023-07-29T08:28:31;17.60;99.90
34099;DHT22;20374;49.474;10.944;2023-07-29T08:30:57;17.60;99.90
34099;DHT22;20374;49.474;10.944;2023-07-29T08:33:23;17.60;99.90
34099;DHT22;20374;49.474;10.944;2023-07-29T08:35:50;17.50;99.90
34099;DHT22;20374;49.474;10.944;2023-07-29T08:38:16;17.60;99.90
34099;DHT22;20374;49.474;10.944;2023-07-29T08:40:53;17.60;99.90
34099;DHT22;20374;49.474;10.944;2023-07-29T08:43:29;17.60;99.90
34099;DHT22;20374;49.474;10.944;2023-07-29T08:45:58;17.60;99.90
34099;DHT22;20374;49.474;10.944;2023-07-29T08:48:35;17.60;99.90
34099;DHT22;20374;49.474;10.944;2023-07-29T08:51:03;17.60;99.90
34099;DHT22;20374;49.474;10.944;2023-07-29T08:53:31;17.50;99.90
34099;DHT22;20374;49.474;10.944;2023-07-29T08:55:57;17.60;99.90
34099;DHT22;20374;49.474;10.944;2023-07-29T08:58:24;17.60;99.90
34099;DHT22;20374;49.474;10.944;2023-07-29T09:00:50;17.60;99.90
34099;DHT22;20374;49.474;10.944;2023-07-29T09:03:16;17.60;99.90
34099;DHT22;20374;49.474;10.944;2023-07-29T09:05:42;17.60;99.90
34099;DHT22;20374;49.474;10.944;2023-07-29T09:08:08;17.60;99.90
34099;DHT22;20374;49.474;10.944;2023-07-29T09:10:38;17.70;99.90
34099;DHT22;20374;49.474;10.944;2023-07-29T09:13:04;17.70;99.90
34099;DHT22;20374;49.474;10.944;2023-07-29T09:15:34;17.70;99.90
34099;DHT22;20374;49.474;10.944;2023-07-29T09:18:18;17.80;99.90
34099;DHT22;20374;49.474;10.944;2023-07-29T09:20:49;17.80;99.90
34099;DHT22;20374;49.474;10.944;2023-07-29T09:23:16;17.80;99.90
34099;DHT22;20374;49.474;10.944;2023-07-29T09:25:42;17.80;99.90
34099;DHT22;20374;49.474;10.944;2023-07-29T09:28:13;17.80;99.90
34099;DHT22;20374;49.474;10.944;2023-07-29T09:30:40;17.80;99.90
34099;DHT22;20374;49.474;10.944;2023-07-29T09:33:07;17.80;99.90
34099;DHT22;20374;49.474;10.944;2023-07-29T09:35:34;17.90;99.90
34099;DHT22;20374;49.474;10.944;2023-07-29T09:38:01;18.00;99.90
34099;DHT22;20374;49.474;10.944;2023-07-29T09:40:37;18.10;99.90
34099;DHT22;20374;49.474;10.944;2023-07-29T09:43:04;18.10;99.90
34099;DHT22;20374;49.474;10.944;2023-07-29T09:45:33;18.20;99.90
34099;DHT22;20374;49.474;10.944;2023-07-29T09:47:59;18.30;99.90
34099;DHT22;20374;49.474;10.944;2023-07-29T09:50:26;18.30;99.90
34099;DHT22;20374;49.474;10.944;2023-07-29T09:52:54;18.40;99.90
34099;DHT22;20374;49.474;10.944;2023-07-29T09:55:22;18.50;99.90
34099;DHT22;20374;49.474;10.944;2023-07-29T09:57:53;18.70;99.90
34099;DHT22;20374;49.474;10.944;2023-07-29T10:00:19;18.80;99.90
34099;DHT22;20374;49.474;10.944;2023-07-29T10:02:46;19.10;99.90
34099;DHT22;20374;49.474;10.944;2023-07-29T10:05:12;19.20;99.90
34099;DHT22;20374;49.474;10.944;2023-07-29T10:07:39;19.40;99.90
34099;DHT22;20374;49.474;10.944;2023-07-29T10:10:07;19.60;99.90
34099;DHT22;20374;49.474;10.944;2023-07-29T10:12:34;20.00;99.90
34099;DHT22;20374;49.474;10.944;2023-07-29T10:15:03;20.30;99.90
34099;DHT22;20374;49.474;10.944;2023-07-29T10:17:30;20.60;99.90
34099;DHT22;20374;49.474;10.944;2023-07-29T10:19:57;20.80;99.90
34099;DHT22;20374;49.474;10.944;2023-07-29T10:22:28;20.90;99.90
34099;DHT22;20374;49.474;10.944;2023-07-29T10:25:03;20.90;99.90
34099;DHT22;20374;49.474;10.944;2023-07-29T10:27:48;20.80;99.90
34099;DHT22;20374;49.474;10.944;2023-07-29T10:30:15;20.60;99.90
34099;DHT22;20374;49.474;10.944;2023-07-29T10:32:42;20.50;99.90
34099;DHT22;20374;49.474;10.944;2023-07-29T10:35:15;20.50;99.90
34099;DHT22;20374;49.474;10.944;2023-07-29T10:37:42;20.50;99.90
34099;DHT22;20374;49.474;10.944;2023-07-29T10:40:10;20.60;99.90
34099;DHT22;20374;49.474;10.944;2023-07-29T10:42:38;20.70;99.90
34099;DHT22;20374;49.474;10.944;2023-07-29T10:45:24;20.70;99.90
34099;DHT22;20374;49.474;10.944;2023-07-29T10:47:50;20.90;99.90
34099;DHT22;20374;49.474;10.944;2023-07-29T10:50:21;21.00;99.90
34099;DHT22;20374;49.474;10.944;2023-07-29T10:52:52;21.20;99.90
34099;DHT22;20374;49.474;10.944;2023-07-29T10:55:28;21.40;99.90
34099;DHT22;20374;49.474;10.944;2023-07-29T10:58:16;21.40;99.90
34099;DHT22;20374;49.474;10.944;2023-07-29T11:00:45;21.60;99.90
34099;DHT22;20374;49.474;10.944;2023-07-29T11:03:12;21.60;99.90
34099;DHT22;20374;49.474;10.944;2023-07-29T11:05:49;21.50;99.90
34099;DHT22;20374;49.474;10.944;2023-07-29T11:08:29;21.50;99.90
34099;DHT22;20374;49.474;10.944;2023-07-29T11:11:13;21.60;99.90
34099;DHT22;20374;49.474;10.944;2023-07-29T11:13:39;21.60;99.90
34099;DHT22;20374;49.474;10.944;2023-07-29T11:16:05;21.80;99.90
34099;DHT22;20374;49.474;10.944;2023-07-29T11:18:33;22.20;99.90
34099;DHT22;20374;49.474;10.944;2023-07-29T11:21:00;22.80;99.90
34099;DHT22;20374;49.474;10.944;2023-07-29T11:23:34;23.00;99.90
34099;DHT22;20374;49.474;10.944;2023-07-29T11:26:01;23.10;99.90
34099;DHT22;20374;49.474;10.944;2023-07-29T11:28:28;23.00;99.90
34099;DHT22;20374;49.474;10.944;2023-07-29T11:30:55;22.80;99.90
34099;DHT22;20374;49.474;10.944;2023-07-29T11:33:27;22.70;99.90
34099;DHT22;20374;49.474;10.944;2023-07-29T11:35:54;22.60;99.90
34099;DHT22;20374;49.474;10.944;2023-07-29T11:38:21;22.40;99.90
34099;DHT22;20374;49.474;10.944;2023-07-29T11:40:59;22.50;99.90
34099;DHT22;20374;49.474;10.944;2023-07-29T11:43:25;22.70;99.90
34099;DHT22;20374;49.474;10.944;2023-07-29T11:45:52;22.80;99.90
34099;DHT22;20374;49.474;10.944;2023-07-29T11:48:26;22.90;99.90
34099;DHT22;20374;49.474;10.944;2023-07-29T11:50:53;22.80;99.90
34099;DHT22;20374;49.474;10.944;2023-07-29T11:53:21;22.90;99.90
34099;DHT22;20374;49.474;10.944;2023-07-29T11:55:51;23.10;99.90
34099;DHT22;20374;49.474;10.944;2023-07-29T11:58:18;23.10;99.90
34099;DHT22;20374;49.474;10.944;2023-07-29T12:00:44;23.10;99.90
34099;DHT22;20374;49.474;10.944;2023-07-29T12:03:11;23.30;99.90
34099;DHT22;20374;49.474;10.944;2023-07-29T12:05:37;23.30;99.90
34099;DHT22;20374;49.474;10.944;2023-07-29T12:08:03;23.30;99.90
34099;DHT22;20374;49.474;10.944;2023-07-29T12:10:30;23.30;99.90
34099;DHT22;20374;49.474;10.944;2023-07-29T12:12:55;23.50;99.90
34099;DHT22;20374;49.474;10.944;2023-07-29T12:15:26;23.60;99.90
34099;DHT22;20374;49.474;10.944;2023-07-29T12:17:53;23.70;99.90
34099;DHT22;20374;49.474;10.944;2023-07-29T12:20:21;23.90;99.90
34099;DHT22;20374;49.474;10.944;2023-07-29T12:22:52;24.20;99.90
34099;DHT22;20374;49.474;10.944;2023-07-29T12:25:18;24.30;99.90
34099;DHT22;20374;49.474;10.944;2023-07-29T12:27:44;24.40;99.90
34099;DHT22;20374;49.474;10.944;2023-07-29T12:30:10;24.50;99.90
34099;DHT22;20374;49.474;10.944;2023-07-29T12:32:46;24.40;99.90
34099;DHT22;20374;49.474;10.944;2023-07-29T12:35:13;24.90;99.90
34099;DHT22;20374;49.474;10.944;2023-07-29T12:37:39;24.90;99.90
34099;DHT22;20374;49.474;10.944;2023-07-29T12:40:24;24.50;99.90
34099;DHT22;20374;49.474;10.944;2023-07-29T12:42:50;24.10;99.90
34099;DHT22;20374;49.474;10.944;2023-07-29T12:45:19;23.80;99.90
34099;DHT22;20374;49.474;10.944;2023-07-29T12:47:47;23.60;99.90
34099;DHT22;20374;49.474;10.944;2023-07-29T12:50:13;23.60;99.90
34099;DHT22;20374;49.474;10.944;2023-07-29T12:52:39;24.00;99.90
34099;DHT22;20374;49.474;10.944;2023-07-29T12:55:05;24.50;99.90
34099;DHT22;20374;49.474;10.944;2023-07-29T12:57:34;25.00;99.90
34099;DHT22;20374;49.474;10.944;2023-07-29T13:00:00;25.20;99.90
34099;DHT22;20374;49.474;10.944;2023-07-29T13:02:26;25.40;99.90
34099;DHT22;20374;49.474;10.944;2023-07-29T13:04:52;25.30;99.90
34099;DHT22;20374;49.474;10.944;2023-07-29T13:07:18;25.30;99.90
34099;DHT22;20374;49.474;10.944;2023-07-29T13:09:44;25.40;99.90
34099;DHT22;20374;49.474;10.944;2023-07-29T13:12:10;25.80;99.90
34099;DHT22;20374;49.474;10.944;2023-07-29T13:14:36;26.40;99.90
34099;DHT22;20374;49.474;10.944;2023-07-29T13:17:02;26.60;99.90
34099;DHT22;20374;49.474;10.944;2023-07-29T13:19:28;26.70;99.90
34099;DHT22;20374;49.474;10.944;2023-07-29T13:21:54;26.20;99.90
34099;DHT22;20374;49.474;10.944;2023-07-29T13:24:20;25.80;99.90
34099;DHT22;20374;49.474;10.944;2023-07-29T13:26:45;25.90;99.90
34099;DHT22;20374;49.474;10.944;2023-07-29T13:29:11;26.20;99.90
34099;DHT22;20374;49.474;10.944;2023-07-29T13:31:37;26.60;99.90
34099;DHT22;20374;49.474;10.944;2023-07-29T13:34:03;26.80;99.90
34099;DHT22;20374;49.474;10.944;2023-07-29T13:36:29;27.20;99.90
34099;DHT22;20374;49.474;10.944;2023-07-29T13:38:55;27.20;98.70
34099;DHT22;20374;49.474;10.944;2023-07-29T13:41:21;27.40;98.20
34099;DHT22;20374;49.474;10.944;2023-07-29T13:43:46;26.90;98.60
34099;DHT22;20374;49.474;10.944;2023-07-29T13:46:12;26.70;98.70
34099;DHT22;20374;49.474;10.944;2023-07-29T13:48:38;26.60;99.50
34099;DHT22;20374;49.474;10.944;2023-07-29T13:51:04;26.90;99.90
34099;DHT22;20374;49.474;10.944;2023-07-29T13:53:30;27.40;99.90
34099;DHT22;20374;49.474;10.944;2023-07-29T13:55:56;27.70;99.00
34099;DHT22;20374;49.474;10.944;2023-07-29T13:58:22;27.60;99.70
34099;DHT22;20374;49.474;10.944;2023-07-29T14:00:48;27.30;99.20
34099;DHT22;20374;49.474;10.944;2023-07-29T14:03:14;26.70;99.00
34099;DHT22;20374;49.474;10.944;2023-07-29T14:05:40;26.40;99.20
34099;DHT22;20374;49.474;10.944;2023-07-29T14:08:05;26.20;99.30
34099;DHT22;20374;49.474;10.944;2023-07-29T14:10:31;26.10;99.90
34099;DHT22;20374;49.474;10.944;2023-07-29T14:12:57;26.20;99.30
34099;DHT22;20374;49.474;10.944;2023-07-29T14:15:23;26.20;99.40
34099;DHT22;20374;49.474;10.944;2023-07-29T14:17:49;26.10;99.30
34099;DHT22;20374;49.474;10.944;2023-07-29T14:20:15;26.20;99.90
34099;DHT22;20374;49.474;10.944;2023-07-29T14:22:41;26.30;99.80
34099;DHT22;20374;49.474;10.944;2023-07-29T14:25:08;26.20;98.90
34099;DHT22;20374;49.474;10.944;2023-07-29T14:27:34;26.20;98.70
34099;DHT22;20374;49.474;10.944;2023-07-29T14:29:59;26.00;99.20
34099;DHT22;20374;49.474;10.944;2023-07-29T14:32:26;26.00;99.90
34099;DHT22;20374;49.474;10.944;2023-07-29T14:34:52;25.90;99.50
34099;DHT22;20374;49.474;10.944;2023-07-29T14:37:18;25.70;99.90
34099;DHT22;20374;49.474;10.944;2023-07-29T14:39:43;25.60;99.90
34099;DHT22;20374;49.474;10.944;2023-07-29T14:42:09;25.40;99.90
34099;DHT22;20374;49.474;10.944;2023-07-29T14:44:35;25.20;99.90
34099;DHT22;20374;49.474;10.944;2023-07-29T14:47:01;25.10;99.90
34099;DHT22;20374;49.474;10.944;2023-07-29T14:49:27;25.10;99.90
34099;DHT22;20374;49.474;10.944;2023-07-29T14:51:53;25.20;99.90
34099;DHT22;20374;49.474;10.944;2023-07-29T14:54:19;25.40;99.90
34099;DHT22;20374;49.474;10.944;2023-07-29T14:56:45;25.50;99.50
34099;DHT22;20374;49.474;10.944;2023-07-29T14:59:11;25.70;99.90
34099;DHT22;20374;49.474;10.944;2023-07-29T15:01:37;25.70;99.90
34099;DHT22;20374;49.474;10.944;2023-07-29T15:04:03;25.60;99.70
34099;DHT22;20374;49.474;10.944;2023-07-29T15:06:29;25.40;97.80
34099;DHT22;20374;49.474;10.944;2023-07-29T15:08:55;25.10;97.20
34099;DHT22;20374;49.474;10.944;2023-07-29T15:11:21;25.10;98.20
34099;DHT22;20374;49.474;10.944;2023-07-29T15:13:47;25.20;98.90
34099;DHT22;20374;49.474;10.944;2023-07-29T15:16:13;25.20;97.20
34099;DHT22;20374;49.474;10.944;2023-07-29T15:18:39;25.30;98.80
34099;DHT22;20374;49.474;10.944;2023-07-29T15:21:08;25.40;98.40
34099;DHT22;20374;49.474;10.944;2023-07-29T15:23:35;25.50;98.50